sensor_id;sensor_type;location;lat;lon;timestamp;P1;durP1;ratioP1;P2;durP2;ratioP2
15858;SDS011;8029;52.202;7.308;2023-05-14T00:00:27;4.13;;;3.70;;
15858;SDS011;8029;52.202;7.308;2023-05-14T00:02:53;3.28;;;2.95;;
15858;SDS011;8029;52.202;7.308;2023-05-14T00:05:19;4.35;;;3.72;;
15858;SDS011;8029;52.202;7.308;2023-05-14T00:07:45;3.97;;;3.60;;
15858;SDS011;8029;52.202;7.308;2023-05-14T00:10:11;5.07;;;3.08;;
15858;SDS011;8029;52.202;7.308;2023-05-14T00:12:37;3.33;;;3.03;;
15858;SDS011;8029;52.202;7.308;2023-05-14T00:15:03;3.78;;;3.17;;
15858;SDS011;8029;52.202;7.308;2023-05-14T00:17:29;3.90;;;3.33;;
15858;SDS011;8029;52.202;7.308;2023-05-14T00:19:55;3.00;;;2.70;;
15858;SDS011;8029;52.202;7.308;2023-05-14T00:22:23;3.17;;;2.88;;
15858;SDS011;8029;52.202;7.308;2023-05-14T00:24:49;6.47;;;3.05;;
15858;SDS011;8029;52.202;7.308;2023-05-14T00:27:15;3.20;;;2.90;;
15858;SDS011;8029;52.202;7.308;2023-05-14T00:29:41;5.40;;;2.95;;
15858;SDS011;8029;52.202;7.308;2023-05-14T00:32:07;4.13;;;3.47;;
15858;SDS011;8029;52.202;7.308;2023-05-14T00:34:33;2.90;;;2.70;;
15858;SDS011;8029;52.202;7.308;2023-05-14T00:37:00;3.63;;;2.85;;
15858;SDS011;8029;52.202;7.308;2023-05-14T00:39:26;4.82;;;3.63;;
15858;SDS011;8029;52.202;7.308;2023-05-14T00:41:52;3.05;;;2.85;;
15858;SDS011;8029;52.202;7.308;2023-05-14T00:44:18;4.13;;;3.55;;
15858;SDS011;8029;52.202;7.308;2023-05-14T00:46:44;4.05;;;3.25;;
15858;SDS011;8029;52.202;7.308;2023-05-14T00:49:10;4.20;;;3.15;;
15858;SDS011;8029;52.202;7.308;2023-05-14T00:51:36;3.42;;;2.47;;
15858;SDS011;8029;52.202;7.308;2023-05-14T00:54:02;3.47;;;3.17;;
15858;SDS011;8029;52.202;7.308;2023-05-14T00:56:28;3.25;;;2.95;;
15858;SDS011;8029;52.202;7.308;2023-05-14T00:58:54;3.05;;;2.78;;
15858;SDS011;8029;52.202;7.308;2023-05-14T01:01:20;4.05;;;3.67;;
15858;SDS011;8029;52.202;7.308;2023-05-14T01:03:46;3.17;;;2.60;;
15858;SDS011;8029;52.202;7.308;2023-05-14T01:11:35;4.05;;;3.53;;
15858;SDS011;8029;52.202;7.308;2023-05-14T01:16:27;3.17;;;2.67;;
15858;SDS011;8029;52.202;7.308;2023-05-14T01:18:54;3.33;;;3.03;;
15858;SDS011;8029;52.202;7.308;2023-05-14T01:21:37;3.50;;;3.17;;
15858;SDS011;8029;52.202;7.308;2023-05-14T01:24:05;3.60;;;2.95;;
15858;SDS011;8029;52.202;7.308;2023-05-14T01:26:31;2.88;;;2.67;;
15858;SDS011;8029;52.202;7.308;2023-05-14T01:29:12;4.43;;;3.30;;
15858;SDS011;8029;52.202;7.308;2023-05-14T01:31:41;3.78;;;3.05;;
15858;SDS011;8029;52.202;7.308;2023-05-14T01:34:07;7.75;;;3.55;;
15858;SDS011;8029;52.202;7.308;2023-05-14T01:36:34;3.75;;;2.78;;
15858;SDS011;8029;52.202;7.308;2023-05-14T01:39:00;2.42;;;2.20;;
15858;SDS011;8029;52.202;7.308;2023-05-14T01:41:27;3.28;;;2.97;;
15858;SDS011;8029;52.202;7.308;2023-05-14T01:43:55;2.80;;;2.60;;
15858;SDS011;8029;52.202;7.308;2023-05-14T01:46:21;3.33;;;3.03;;
15858;SDS011;8029;52.202;7.308;2023-05-14T01:48:49;3.05;;;2.70;;
15858;SDS011;8029;52.202;7.308;2023-05-14T01:51:15;3.47;;;2.75;;
15858;SDS011;8029;52.202;7.308;2023-05-14T01:53:41;3.15;;;2.78;;
15858;SDS011;8029;52.202;7.308;2023-05-14T01:56:07;2.85;;;2.65;;
15858;SDS011;8029;52.202;7.308;2023-05-14T01:58:32;6.20;;;3.65;;
15858;SDS011;8029;52.202;7.308;2023-05-14T02:00:58;3.30;;;2.92;;
15858;SDS011;8029;52.202;7.308;2023-05-14T02:03:24;4.15;;;3.67;;
15858;SDS011;8029;52.202;7.308;2023-05-14T02:05:50;4.75;;;3.55;;
15858;SDS011;8029;52.202;7.308;2023-05-14T02:08:16;3.60;;;3.30;;
15858;SDS011;8029;52.202;7.308;2023-05-14T02:10:42;7.55;;;3.50;;
15858;SDS011;8029;52.202;7.308;2023-05-14T02:13:08;3.28;;;2.70;;
15858;SDS011;8029;52.202;7.308;2023-05-14T02:15:34;5.07;;;4.20;;
15858;SDS011;8029;52.202;7.308;2023-05-14T02:18:00;4.95;;;3.67;;
15858;SDS011;8029;52.202;7.308;2023-05-14T02:20:26;3.80;;;3.05;;
15858;SDS011;8029;52.202;7.308;2023-05-14T02:22:52;3.92;;;3.28;;
15858;SDS011;8029;52.202;7.308;2023-05-14T02:25:18;3.55;;;3.22;;
15858;SDS011;8029;52.202;7.308;2023-05-14T02:27:44;3.75;;;3.45;;
15858;SDS011;8029;52.202;7.308;2023-05-14T02:30:10;4.40;;;4.00;;
15858;SDS011;8029;52.202;7.308;2023-05-14T02:32:36;5.72;;;4.28;;
15858;SDS011;8029;52.202;7.308;2023-05-14T02:35:02;4.07;;;3.10;;
15858;SDS011;8029;52.202;7.308;2023-05-14T02:37:28;4.72;;;3.53;;
15858;SDS011;8029;52.202;7.308;2023-05-14T02:39:54;3.38;;;3.03;;
15858;SDS011;8029;52.202;7.308;2023-05-14T02:42:20;4.75;;;4.03;;
15858;SDS011;8029;52.202;7.308;2023-05-14T02:44:46;2.95;;;2.75;;
15858;SDS011;8029;52.202;7.308;2023-05-14T02:47:12;3.60;;;3.30;;
15858;SDS011;8029;52.202;7.308;2023-05-14T02:49:39;3.88;;;3.40;;
15858;SDS011;8029;52.202;7.308;2023-05-14T02:52:05;3.60;;;2.90;;
15858;SDS011;8029;52.202;7.308;2023-05-14T02:54:31;3.75;;;3.45;;
15858;SDS011;8029;52.202;7.308;2023-05-14T02:56:57;7.65;;;3.95;;
15858;SDS011;8029;52.202;7.308;2023-05-14T02:59:23;3.20;;;2.92;;
15858;SDS011;8029;52.202;7.308;2023-05-14T03:01:49;4.93;;;3.47;;
15858;SDS011;8029;52.202;7.308;2023-05-14T03:04:15;8.65;;;3.97;;
15858;SDS011;8029;52.202;7.308;2023-05-14T03:06:41;3.53;;;3.22;;
15858;SDS011;8029;52.202;7.308;2023-05-14T03:09:08;4.63;;;4.10;;
15858;SDS011;8029;52.202;7.308;2023-05-14T03:11:34;3.67;;;3.35;;
15858;SDS011;8029;52.202;7.308;2023-05-14T03:14:00;3.85;;;3.35;;
15858;SDS011;8029;52.202;7.308;2023-05-14T03:16:26;4.28;;;3.50;;
15858;SDS011;8029;52.202;7.308;2023-05-14T03:18:52;8.85;;;3.40;;
15858;SDS011;8029;52.202;7.308;2023-05-14T03:21:18;3.03;;;2.83;;
15858;SDS011;8029;52.202;7.308;2023-05-14T03:23:44;5.53;;;4.25;;
15858;SDS011;8029;52.202;7.308;2023-05-14T03:26:10;4.68;;;4.28;;
15858;SDS011;8029;52.202;7.308;2023-05-14T03:28:36;3.55;;;3.10;;
15858;SDS011;8029;52.202;7.308;2023-05-14T03:31:02;9.25;;;3.60;;
15858;SDS011;8029;52.202;7.308;2023-05-14T03:33:28;3.45;;;2.70;;
15858;SDS011;8029;52.202;7.308;2023-05-14T03:35:54;3.60;;;3.25;;
15858;SDS011;8029;52.202;7.308;2023-05-14T03:38:20;3.58;;;3.28;;
15858;SDS011;8029;52.202;7.308;2023-05-14T03:40:46;4.35;;;3.25;;
15858;SDS011;8029;52.202;7.308;2023-05-14T03:43:12;5.10;;;3.70;;
15858;SDS011;8029;52.202;7.308;2023-05-14T03:45:38;5.45;;;3.95;;
15858;SDS011;8029;52.202;7.308;2023-05-14T03:48:04;4.50;;;4.10;;
15858;SDS011;8029;52.202;7.308;2023-05-14T03:50:31;5.90;;;4.50;;
15858;SDS011;8029;52.202;7.308;2023-05-14T03:52:57;3.40;;;3.00;;
15858;SDS011;8029;52.202;7.308;2023-05-14T03:55:23;5.55;;;3.63;;
15858;SDS011;8029;52.202;7.308;2023-05-14T03:57:48;5.97;;;4.13;;
15858;SDS011;8029;52.202;7.308;2023-05-14T04:00:15;5.10;;;3.88;;
15858;SDS011;8029;52.202;7.308;2023-05-14T04:02:41;3.67;;;3.38;;
15858;SDS011;8029;52.202;7.308;2023-05-14T04:05:07;5.32;;;4.63;;
15858;SDS011;8029;52.202;7.308;2023-05-14T04:07:33;3.75;;;3.45;;
15858;SDS011;8029;52.202;7.308;2023-05-14T04:09:59;4.18;;;3.28;;
15858;SDS011;8029;52.202;7.308;2023-05-14T04:12:25;6.40;;;4.15;;
15858;SDS011;8029;52.202;7.308;2023-05-14T04:14:52;4.63;;;4.22;;
15858;SDS011;8029;52.202;7.308;2023-05-14T04:17:18;4.28;;;3.88;;
15858;SDS011;8029;52.202;7.308;2023-05-14T04:19:44;5.22;;;4.03;;
15858;SDS011;8029;52.202;7.308;2023-05-14T04:22:10;4.38;;;3.67;;
15858;SDS011;8029;52.202;7.308;2023-05-14T04:24:36;3.97;;;3.67;;
15858;SDS011;8029;52.202;7.308;2023-05-14T04:27:02;4.03;;;3.47;;
15858;SDS011;8029;52.202;7.308;2023-05-14T04:29:28;4.93;;;4.10;;
15858;SDS011;8029;52.202;7.308;2023-05-14T04:31:54;3.63;;;3.33;;
15858;SDS011;8029;52.202;7.308;2023-05-14T04:34:20;4.28;;;3.65;;
15858;SDS011;8029;52.202;7.308;2023-05-14T04:36:46;5.13;;;4.22;;
15858;SDS011;8029;52.202;7.308;2023-05-14T04:39:12;3.40;;;3.10;;
15858;SDS011;8029;52.202;7.308;2023-05-14T04:41:39;6.18;;;3.80;;
15858;SDS011;8029;52.202;7.308;2023-05-14T04:44:05;3.85;;;3.47;;
15858;SDS011;8029;52.202;7.308;2023-05-14T04:46:31;9.65;;;3.83;;
15858;SDS011;8029;52.202;7.308;2023-05-14T04:48:57;3.67;;;3.38;;
15858;SDS011;8029;52.202;7.308;2023-05-14T04:51:23;4.13;;;3.75;;
15858;SDS011;8029;52.202;7.308;2023-05-14T04:53:50;3.65;;;3.35;;
15858;SDS011;8029;52.202;7.308;2023-05-14T04:56:16;4.50;;;3.92;;
15858;SDS011;8029;52.202;7.308;2023-05-14T04:58:42;5.05;;;3.45;;
15858;SDS011;8029;52.202;7.308;2023-05-14T05:01:08;4.30;;;3.75;;
15858;SDS011;8029;52.202;7.308;2023-05-14T05:03:34;3.42;;;3.13;;
15858;SDS011;8029;52.202;7.308;2023-05-14T05:06:00;3.72;;;2.78;;
15858;SDS011;8029;52.202;7.308;2023-05-14T05:08:26;4.65;;;4.20;;
15858;SDS011;8029;52.202;7.308;2023-05-14T05:10:52;17.40;;;4.10;;
15858;SDS011;8029;52.202;7.308;2023-05-14T05:13:18;3.42;;;3.13;;
15858;SDS011;8029;52.202;7.308;2023-05-14T05:15:44;4.72;;;3.83;;
15858;SDS011;8029;52.202;7.308;2023-05-14T05:18:10;4.40;;;4.00;;
15858;SDS011;8029;52.202;7.308;2023-05-14T05:20:36;3.92;;;3.53;;
15858;SDS011;8029;52.202;7.308;2023-05-14T05:23:02;6.82;;;4.57;;
15858;SDS011;8029;52.202;7.308;2023-05-14T05:25:28;5.30;;;4.47;;
15858;SDS011;8029;52.202;7.308;2023-05-14T05:27:54;4.78;;;3.95;;
15858;SDS011;8029;52.202;7.308;2023-05-14T05:30:20;5.55;;;4.88;;
15858;SDS011;8029;52.202;7.308;2023-05-14T05:32:46;5.90;;;4.82;;
15858;SDS011;8029;52.202;7.308;2023-05-14T05:35:12;4.63;;;4.22;;
15858;SDS011;8029;52.202;7.308;2023-05-14T05:37:38;7.40;;;4.40;;
15858;SDS011;8029;52.202;7.308;2023-05-14T05:40:05;5.22;;;4.57;;
15858;SDS011;8029;52.202;7.308;2023-05-14T05:42:31;5.18;;;4.63;;
15858;SDS011;8029;52.202;7.308;2023-05-14T05:44:57;4.28;;;3.58;;
15858;SDS011;8029;52.202;7.308;2023-05-14T05:47:23;5.60;;;4.70;;
15858;SDS011;8029;52.202;7.308;2023-05-14T05:49:49;5.95;;;3.92;;
15858;SDS011;8029;52.202;7.308;2023-05-14T05:52:15;4.28;;;3.90;;
15858;SDS011;8029;52.202;7.308;2023-05-14T05:54:41;4.43;;;3.83;;
15858;SDS011;8029;52.202;7.308;2023-05-14T05:57:07;3.90;;;3.60;;
15858;SDS011;8029;52.202;7.308;2023-05-14T05:59:33;5.15;;;4.65;;
15858;SDS011;8029;52.202;7.308;2023-05-14T06:02:00;5.50;;;5.00;;
15858;SDS011;8029;52.202;7.308;2023-05-14T06:04:26;6.07;;;4.75;;
15858;SDS011;8029;52.202;7.308;2023-05-14T06:06:59;6.30;;;4.10;;
15858;SDS011;8029;52.202;7.308;2023-05-14T06:09:25;5.43;;;4.18;;
15858;SDS011;8029;52.202;7.308;2023-05-14T06:11:51;5.38;;;3.70;;
15858;SDS011;8029;52.202;7.308;2023-05-14T06:14:17;6.70;;;4.38;;
15858;SDS011;8029;52.202;7.308;2023-05-14T06:16:43;4.65;;;3.75;;
15858;SDS011;8029;52.202;7.308;2023-05-14T06:19:10;8.88;;;6.15;;
15858;SDS011;8029;52.202;7.308;2023-05-14T06:21:36;3.63;;;3.33;;
15858;SDS011;8029;52.202;7.308;2023-05-14T06:24:02;3.70;;;3.28;;
15858;SDS011;8029;52.202;7.308;2023-05-14T06:26:28;21.83;;;3.70;;
15858;SDS011;8029;52.202;7.308;2023-05-14T06:28:54;3.55;;;3.03;;
15858;SDS011;8029;52.202;7.308;2023-05-14T06:31:20;3.55;;;3.30;;
15858;SDS011;8029;52.202;7.308;2023-05-14T06:33:46;4.88;;;3.75;;
15858;SDS011;8029;52.202;7.308;2023-05-14T06:36:12;3.40;;;3.00;;
15858;SDS011;8029;52.202;7.308;2023-05-14T06:38:38;5.78;;;3.33;;
15858;SDS011;8029;52.202;7.308;2023-05-14T06:41:04;3.17;;;2.90;;
15858;SDS011;8029;52.202;7.308;2023-05-14T06:43:30;3.40;;;2.72;;
15858;SDS011;8029;52.202;7.308;2023-05-14T06:45:56;3.80;;;3.35;;
15858;SDS011;8029;52.202;7.308;2023-05-14T06:48:22;3.92;;;3.53;;
15858;SDS011;8029;52.202;7.308;2023-05-14T06:50:48;3.90;;;2.63;;
15858;SDS011;8029;52.202;7.308;2023-05-14T06:53:14;3.25;;;2.95;;
15858;SDS011;8029;52.202;7.308;2023-05-14T06:55:41;7.13;;;3.35;;
15858;SDS011;8029;52.202;7.308;2023-05-14T06:58:07;4.28;;;3.85;;
15858;SDS011;8029;52.202;7.308;2023-05-14T07:00:33;2.67;;;2.47;;
15858;SDS011;8029;52.202;7.308;2023-05-14T07:02:59;4.18;;;3.38;;
15858;SDS011;8029;52.202;7.308;2023-05-14T07:05:25;3.78;;;2.88;;
15858;SDS011;8029;52.202;7.308;2023-05-14T07:07:51;3.58;;;2.88;;
15858;SDS011;8029;52.202;7.308;2023-05-14T07:10:17;3.63;;;3.30;;
15858;SDS011;8029;52.202;7.308;2023-05-14T07:12:43;3.20;;;2.95;;
15858;SDS011;8029;52.202;7.308;2023-05-14T07:15:09;2.83;;;2.63;;
15858;SDS011;8029;52.202;7.308;2023-05-14T07:17:36;2.92;;;2.65;;
15858;SDS011;8029;52.202;7.308;2023-05-14T07:20:02;3.45;;;3.17;;
15858;SDS011;8029;52.202;7.308;2023-05-14T07:22:28;4.15;;;3.50;;
15858;SDS011;8029;52.202;7.308;2023-05-14T07:24:54;2.70;;;2.50;;
15858;SDS011;8029;52.202;7.308;2023-05-14T07:27:20;6.38;;;3.67;;
15858;SDS011;8029;52.202;7.308;2023-05-14T07:29:46;4.38;;;3.40;;
15858;SDS011;8029;52.202;7.308;2023-05-14T07:32:12;4.00;;;3.42;;
15858;SDS011;8029;52.202;7.308;2023-05-14T07:34:41;5.10;;;4.03;;
15858;SDS011;8029;52.202;7.308;2023-05-14T07:37:07;2.50;;;2.30;;
15858;SDS011;8029;52.202;7.308;2023-05-14T07:39:33;2.40;;;2.20;;
15858;SDS011;8029;52.202;7.308;2023-05-14T07:42:00;2.75;;;2.55;;
15858;SDS011;8029;52.202;7.308;2023-05-14T07:44:26;3.33;;;2.55;;
15858;SDS011;8029;52.202;7.308;2023-05-14T07:46:52;5.45;;;2.75;;
15858;SDS011;8029;52.202;7.308;2023-05-14T07:49:18;3.25;;;2.95;;
15858;SDS011;8029;52.202;7.308;2023-05-14T07:51:44;3.53;;;3.22;;
15858;SDS011;8029;52.202;7.308;2023-05-14T07:54:10;4.22;;;3.17;;
15858;SDS011;8029;52.202;7.308;2023-05-14T07:56:37;2.88;;;2.67;;
15858;SDS011;8029;52.202;7.308;2023-05-14T07:59:03;3.33;;;2.78;;
15858;SDS011;8029;52.202;7.308;2023-05-14T08:01:31;2.53;;;2.33;;
15858;SDS011;8029;52.202;7.308;2023-05-14T08:03:57;6.35;;;2.75;;
15858;SDS011;8029;52.202;7.308;2023-05-14T08:06:23;3.10;;;2.40;;
15858;SDS011;8029;52.202;7.308;2023-05-14T08:08:51;2.50;;;2.00;;
15858;SDS011;8029;52.202;7.308;2023-05-14T08:11:17;1.98;;;1.88;;
15858;SDS011;8029;52.202;7.308;2023-05-14T08:13:43;7.65;;;3.92;;
15858;SDS011;8029;52.202;7.308;2023-05-14T08:16:09;2.50;;;2.30;;
15858;SDS011;8029;52.202;7.308;2023-05-14T08:18:36;2.42;;;2.22;;
15858;SDS011;8029;52.202;7.308;2023-05-14T08:21:02;2.08;;;1.98;;
15858;SDS011;8029;52.202;7.308;2023-05-14T08:23:28;2.35;;;2.15;;
15858;SDS011;8029;52.202;7.308;2023-05-14T08:25:54;2.35;;;2.15;;
15858;SDS011;8029;52.202;7.308;2023-05-14T08:28:20;4.75;;;2.50;;
15858;SDS011;8029;52.202;7.308;2023-05-14T08:30:49;2.30;;;1.83;;
15858;SDS011;8029;52.202;7.308;2023-05-14T08:33:15;2.13;;;1.73;;
15858;SDS011;8029;52.202;7.308;2023-05-14T08:35:42;1.70;;;1.60;;
15858;SDS011;8029;52.202;7.308;2023-05-14T08:38:08;2.80;;;1.77;;
15858;SDS011;8029;52.202;7.308;2023-05-14T08:40:34;3.38;;;2.08;;
15858;SDS011;8029;52.202;7.308;2023-05-14T08:43:01;2.35;;;1.80;;
15858;SDS011;8029;52.202;7.308;2023-05-14T08:45:30;3.85;;;1.92;;
15858;SDS011;8029;52.202;7.308;2023-05-14T08:47:58;1.67;;;1.58;;
15858;SDS011;8029;52.202;7.308;2023-05-14T08:50:25;6.30;;;5.05;;
15858;SDS011;8029;52.202;7.308;2023-05-14T08:52:57;2.15;;;2.03;;
15858;SDS011;8029;52.202;7.308;2023-05-14T08:55:38;2.75;;;2.05;;
15858;SDS011;8029;52.202;7.308;2023-05-14T08:58:28;2.33;;;2.13;;
15858;SDS011;8029;52.202;7.308;2023-05-14T09:04:09;2.28;;;2.08;;
15858;SDS011;8029;52.202;7.308;2023-05-14T09:06:36;1.42;;;1.33;;
15858;SDS011;8029;52.202;7.308;2023-05-14T09:09:02;1.83;;;1.70;;
15858;SDS011;8029;52.202;7.308;2023-05-14T09:13:59;1.88;;;1.42;;
15858;SDS011;8029;52.202;7.308;2023-05-14T09:16:25;1.42;;;1.33;;
15858;SDS011;8029;52.202;7.308;2023-05-14T09:18:51;1.20;;;1.10;;
15858;SDS011;8029;52.202;7.308;2023-05-14T09:21:17;1.52;;;1.42;;
15858;SDS011;8029;52.202;7.308;2023-05-14T09:23:44;1.52;;;1.42;;
15858;SDS011;8029;52.202;7.308;2023-05-14T09:26:14;1.83;;;1.50;;
15858;SDS011;8029;52.202;7.308;2023-05-14T09:28:42;1.45;;;1.25;;
15858;SDS011;8029;52.202;7.308;2023-05-14T09:31:10;1.50;;;1.40;;
15858;SDS011;8029;52.202;7.308;2023-05-14T09:33:36;1.50;;;1.30;;
15858;SDS011;8029;52.202;7.308;2023-05-14T09:36:02;1.33;;;1.27;;
15858;SDS011;8029;52.202;7.308;2023-05-14T09:38:29;8.80;;;1.63;;
15858;SDS011;8029;52.202;7.308;2023-05-14T09:40:56;1.52;;;1.42;;
15858;SDS011;8029;52.202;7.308;2023-05-14T09:43:22;2.33;;;1.63;;
15858;SDS011;8029;52.202;7.308;2023-05-14T09:45:48;2.20;;;1.17;;
15858;SDS011;8029;52.202;7.308;2023-05-14T09:48:14;0.65;;;0.65;;
15858;SDS011;8029;52.202;7.308;2023-05-14T09:50:41;1.35;;;1.20;;
15858;SDS011;8029;52.202;7.308;2023-05-14T09:53:07;0.85;;;0.85;;
15858;SDS011;8029;52.202;7.308;2023-05-14T09:55:35;1.65;;;1.50;;
15858;SDS011;8029;52.202;7.308;2023-05-14T09:58:01;1.70;;;1.60;;
15858;SDS011;8029;52.202;7.308;2023-05-14T10:00:28;2.00;;;1.73;;
15858;SDS011;8029;52.202;7.308;2023-05-14T10:02:54;2.10;;;1.70;;
15858;SDS011;8029;52.202;7.308;2023-05-14T10:05:22;0.82;;;0.82;;
15858;SDS011;8029;52.202;7.308;2023-05-14T10:07:50;1.20;;;1.20;;
15858;SDS011;8029;52.202;7.308;2023-05-14T10:10:18;2.75;;;1.75;;
15858;SDS011;8029;52.202;7.308;2023-05-14T10:12:51;1.88;;;1.48;;
15858;SDS011;8029;52.202;7.308;2023-05-14T10:15:25;1.02;;;0.93;;
15858;SDS011;8029;52.202;7.308;2023-05-14T10:17:55;1.10;;;1.02;;
15858;SDS011;8029;52.202;7.308;2023-05-14T10:20:23;1.50;;;1.40;;
15858;SDS011;8029;52.202;7.308;2023-05-14T10:22:50;0.88;;;0.88;;
15858;SDS011;8029;52.202;7.308;2023-05-14T10:25:16;2.70;;;1.38;;
15858;SDS011;8029;52.202;7.308;2023-05-14T10:27:43;2.63;;;1.67;;
15858;SDS011;8029;52.202;7.308;2023-05-14T10:30:10;1.08;;;1.08;;
15858;SDS011;8029;52.202;7.308;2023-05-14T10:32:39;1.88;;;1.50;;
15858;SDS011;8029;52.202;7.308;2023-05-14T10:35:15;1.83;;;1.23;;
15858;SDS011;8029;52.202;7.308;2023-05-14T10:37:42;1.42;;;1.38;;
15858;SDS011;8029;52.202;7.308;2023-05-14T10:40:10;1.27;;;1.27;;
15858;SDS011;8029;52.202;7.308;2023-05-14T10:42:37;1.65;;;1.55;;
15858;SDS011;8029;52.202;7.308;2023-05-14T10:45:08;1.40;;;1.25;;
15858;SDS011;8029;52.202;7.308;2023-05-14T10:47:35;1.77;;;1.65;;
15858;SDS011;8029;52.202;7.308;2023-05-14T10:50:05;4.00;;;2.28;;
15858;SDS011;8029;52.202;7.308;2023-05-14T10:52:31;3.95;;;2.28;;
15858;SDS011;8029;52.202;7.308;2023-05-14T10:54:59;1.90;;;1.52;;
15858;SDS011;8029;52.202;7.308;2023-05-14T10:57:27;5.68;;;3.40;;
15858;SDS011;8029;52.202;7.308;2023-05-14T10:59:54;1.08;;;0.98;;
15858;SDS011;8029;52.202;7.308;2023-05-14T11:02:27;6.88;;;5.72;;
15858;SDS011;8029;52.202;7.308;2023-05-14T11:05:13;11.90;;;3.65;;
15858;SDS011;8029;52.202;7.308;2023-05-14T11:07:41;4.35;;;2.17;;
15858;SDS011;8029;52.202;7.308;2023-05-14T11:10:09;1.60;;;1.50;;
15858;SDS011;8029;52.202;7.308;2023-05-14T11:12:39;1.85;;;1.50;;
15858;SDS011;8029;52.202;7.308;2023-05-14T11:15:06;5.65;;;1.88;;
15858;SDS011;8029;52.202;7.308;2023-05-14T11:17:33;1.55;;;1.45;;
15858;SDS011;8029;52.202;7.308;2023-05-14T11:20:02;3.58;;;1.70;;
15858;SDS011;8029;52.202;7.308;2023-05-14T11:22:32;2.58;;;2.38;;
15858;SDS011;8029;52.202;7.308;2023-05-14T11:25:04;2.03;;;1.52;;
15858;SDS011;8029;52.202;7.308;2023-05-14T11:27:32;3.17;;;1.63;;
15858;SDS011;8029;52.202;7.308;2023-05-14T11:29:59;0.98;;;0.98;;
15858;SDS011;8029;52.202;7.308;2023-05-14T11:32:25;1.48;;;1.38;;
15858;SDS011;8029;52.202;7.308;2023-05-14T11:34:51;1.00;;;0.95;;
15858;SDS011;8029;52.202;7.308;2023-05-14T11:37:17;1.75;;;1.20;;
15858;SDS011;8029;52.202;7.308;2023-05-14T11:39:47;1.20;;;1.20;;
15858;SDS011;8029;52.202;7.308;2023-05-14T11:42:14;1.25;;;1.15;;
15858;SDS011;8029;52.202;7.308;2023-05-14T11:44:42;1.02;;;1.02;;
15858;SDS011;8029;52.202;7.308;2023-05-14T11:47:09;1.73;;;1.50;;
15858;SDS011;8029;52.202;7.308;2023-05-14T11:49:35;1.38;;;1.35;;
15858;SDS011;8029;52.202;7.308;2023-05-14T11:52:03;1.27;;;1.17;;
15858;SDS011;8029;52.202;7.308;2023-05-14T11:54:30;1.50;;;1.40;;
15858;SDS011;8029;52.202;7.308;2023-05-14T11:56:56;2.08;;;1.73;;
15858;SDS011;8029;52.202;7.308;2023-05-14T11:59:23;1.52;;;1.42;;
15858;SDS011;8029;52.202;7.308;2023-05-14T12:01:50;2.30;;;1.75;;
15858;SDS011;8029;52.202;7.308;2023-05-14T12:04:17;1.52;;;1.35;;
15858;SDS011;8029;52.202;7.308;2023-05-14T12:06:46;1.35;;;1.17;;
15858;SDS011;8029;52.202;7.308;2023-05-14T12:09:13;1.95;;;1.55;;
15858;SDS011;8029;52.202;7.308;2023-05-14T12:11:40;2.63;;;1.55;;
15858;SDS011;8029;52.202;7.308;2023-05-14T12:14:10;4.53;;;1.65;;
15858;SDS011;8029;52.202;7.308;2023-05-14T12:16:38;2.28;;;1.27;;
15858;SDS011;8029;52.202;7.308;2023-05-14T12:19:06;1.92;;;1.73;;
15858;SDS011;8029;52.202;7.308;2023-05-14T12:21:33;1.48;;;1.38;;
15858;SDS011;8029;52.202;7.308;2023-05-14T12:23:59;4.32;;;1.60;;
15858;SDS011;8029;52.202;7.308;2023-05-14T12:26:25;1.33;;;1.23;;
15858;SDS011;8029;52.202;7.308;2023-05-14T12:28:58;1.63;;;1.42;;
15858;SDS011;8029;52.202;7.308;2023-05-14T12:31:34;0.98;;;0.60;;
15858;SDS011;8029;52.202;7.308;2023-05-14T12:34:01;0.80;;;0.80;;
15858;SDS011;8029;52.202;7.308;2023-05-14T12:36:28;1.55;;;1.45;;
15858;SDS011;8029;52.202;7.308;2023-05-14T12:38:59;1.65;;;1.33;;
15858;SDS011;8029;52.202;7.308;2023-05-14T12:41:26;1.25;;;1.15;;
15858;SDS011;8029;52.202;7.308;2023-05-14T12:43:52;4.45;;;2.28;;
15858;SDS011;8029;52.202;7.308;2023-05-14T12:46:18;2.33;;;1.33;;
15858;SDS011;8029;52.202;7.308;2023-05-14T12:48:44;5.97;;;1.40;;
15858;SDS011;8029;52.202;7.308;2023-05-14T12:51:10;1.80;;;1.55;;
15858;SDS011;8029;52.202;7.308;2023-05-14T12:53:36;1.10;;;1.10;;
15858;SDS011;8029;52.202;7.308;2023-05-14T12:56:02;2.15;;;0.90;;
15858;SDS011;8029;52.202;7.308;2023-05-14T12:58:29;1.60;;;1.50;;
15858;SDS011;8029;52.202;7.308;2023-05-14T13:00:55;0.75;;;0.73;;
15858;SDS011;8029;52.202;7.308;2023-05-14T13:03:21;1.48;;;1.38;;
15858;SDS011;8029;52.202;7.308;2023-05-14T13:05:47;1.48;;;1.38;;
15858;SDS011;8029;52.202;7.308;2023-05-14T13:08:13;0.95;;;0.88;;
15858;SDS011;8029;52.202;7.308;2023-05-14T13:10:41;0.77;;;0.77;;
15858;SDS011;8029;52.202;7.308;2023-05-14T13:13:08;1.67;;;1.35;;
15858;SDS011;8029;52.202;7.308;2023-05-14T13:15:34;1.48;;;1.17;;
15858;SDS011;8029;52.202;7.308;2023-05-14T13:18:00;2.63;;;1.73;;
15858;SDS011;8029;52.202;7.308;2023-05-14T13:20:26;1.63;;;1.38;;
15858;SDS011;8029;52.202;7.308;2023-05-14T13:22:54;1.13;;;1.13;;
15858;SDS011;8029;52.202;7.308;2023-05-14T13:25:21;0.80;;;0.80;;
15858;SDS011;8029;52.202;7.308;2023-05-14T13:27:47;1.55;;;1.05;;
15858;SDS011;8029;52.202;7.308;2023-05-14T13:30:17;1.25;;;1.13;;
15858;SDS011;8029;52.202;7.308;2023-05-14T13:32:43;1.10;;;1.10;;
15858;SDS011;8029;52.202;7.308;2023-05-14T13:35:10;3.30;;;1.33;;
15858;SDS011;8029;52.202;7.308;2023-05-14T13:37:36;1.90;;;1.42;;
15858;SDS011;8029;52.202;7.308;2023-05-14T13:40:02;2.75;;;1.52;;
15858;SDS011;8029;52.202;7.308;2023-05-14T13:42:28;1.27;;;1.17;;
15858;SDS011;8029;52.202;7.308;2023-05-14T13:44:54;1.33;;;1.02;;
15858;SDS011;8029;52.202;7.308;2023-05-14T13:47:20;2.33;;;1.73;;
15858;SDS011;8029;52.202;7.308;2023-05-14T13:49:46;1.20;;;1.10;;
15858;SDS011;8029;52.202;7.308;2023-05-14T13:52:12;1.42;;;1.10;;
15858;SDS011;8029;52.202;7.308;2023-05-14T13:54:38;1.20;;;1.13;;
15858;SDS011;8029;52.202;7.308;2023-05-14T13:57:04;1.60;;;1.50;;
15858;SDS011;8029;52.202;7.308;2023-05-14T13:59:30;1.73;;;1.35;;
15858;SDS011;8029;52.202;7.308;2023-05-14T14:01:57;0.82;;;0.82;;
15858;SDS011;8029;52.202;7.308;2023-05-14T14:04:22;1.42;;;1.33;;
15858;SDS011;8029;52.202;7.308;2023-05-14T14:06:52;0.95;;;0.95;;
15858;SDS011;8029;52.202;7.308;2023-05-14T14:09:19;1.00;;;1.00;;
15858;SDS011;8029;52.202;7.308;2023-05-14T14:11:46;5.00;;;1.30;;
15858;SDS011;8029;52.202;7.308;2023-05-14T14:14:13;0.82;;;0.75;;
15858;SDS011;8029;52.202;7.308;2023-05-14T14:16:39;0.70;;;0.70;;
15858;SDS011;8029;52.202;7.308;2023-05-14T14:19:05;1.35;;;0.88;;
15858;SDS011;8029;52.202;7.308;2023-05-14T14:21:31;0.90;;;0.90;;
15858;SDS011;8029;52.202;7.308;2023-05-14T14:23:59;1.67;;;1.40;;
15858;SDS011;8029;52.202;7.308;2023-05-14T14:26:25;1.40;;;1.30;;
15858;SDS011;8029;52.202;7.308;2023-05-14T14:28:52;0.98;;;0.98;;
15858;SDS011;8029;52.202;7.308;2023-05-14T14:31:18;0.82;;;0.82;;
15858;SDS011;8029;52.202;7.308;2023-05-14T14:33:44;1.08;;;0.98;;
15858;SDS011;8029;52.202;7.308;2023-05-14T14:36:11;2.30;;;1.38;;
15858;SDS011;8029;52.202;7.308;2023-05-14T14:38:37;2.40;;;2.20;;
15858;SDS011;8029;52.202;7.308;2023-05-14T14:41:03;1.17;;;0.90;;
15858;SDS011;8029;52.202;7.308;2023-05-14T14:43:32;1.17;;;1.15;;
15858;SDS011;8029;52.202;7.308;2023-05-14T14:45:58;0.90;;;0.90;;
15858;SDS011;8029;52.202;7.308;2023-05-14T14:48:25;0.95;;;0.82;;
15858;SDS011;8029;52.202;7.308;2023-05-14T14:50:55;0.90;;;0.90;;
15858;SDS011;8029;52.202;7.308;2023-05-14T14:53:21;1.20;;;1.10;;
15858;SDS011;8029;52.202;7.308;2023-05-14T14:55:48;1.00;;;1.00;;
15858;SDS011;8029;52.202;7.308;2023-05-14T14:58:14;2.70;;;1.58;;
15858;SDS011;8029;52.202;7.308;2023-05-14T15:00:40;0.95;;;0.95;;
15858;SDS011;8029;52.202;7.308;2023-05-14T15:03:07;1.15;;;0.68;;
15858;SDS011;8029;52.202;7.308;2023-05-14T15:05:34;0.70;;;0.70;;
15858;SDS011;8029;52.202;7.308;2023-05-14T15:08:00;1.35;;;1.25;;
15858;SDS011;8029;52.202;7.308;2023-05-14T15:10:33;0.95;;;0.90;;